createdAt,value
2023-01-26T00:00:58.405Z,8.60
2023-01-26T00:03:30.915Z,7.20
2023-01-26T00:06:05.677Z,7.70
2023-01-26T00:08:38.789Z,7.60
2023-01-26T00:11:13.100Z,7.90
2023-01-26T00:13:45.366Z,8.10
2023-01-26T00:16:17.442Z,8.50
2023-01-26T00:18:49.404Z,8.20
2023-01-26T00:21:22.651Z,7.70
2023-01-26T00:23:54.916Z,8.00
2023-01-26T00:26:28.678Z,7.70
2023-01-26T00:29:01.648Z,7.70
2023-01-26T00:34:05.422Z,7.90
2023-01-26T00:36:38.114Z,8.50
2023-01-26T00:39:09.989Z,7.80
2023-01-26T00:42:00.571Z,7.90
2023-01-26T00:44:33.230Z,7.80
2023-01-26T00:47:08.531Z,8.10
2023-01-26T00:49:40.552Z,8.30
2023-01-26T00:52:13.189Z,8.80
2023-01-26T00:54:45.188Z,7.80
2023-01-26T00:57:19.758Z,7.50
2023-01-26T00:59:51.674Z,7.90
2023-01-26T01:02:23.587Z,7.80
2023-01-26T01:04:55.502Z,8.20
2023-01-26T01:07:27.458Z,7.70
2023-01-26T01:10:00.624Z,7.90
2023-01-26T01:12:32.669Z,8.30
2023-01-26T01:15:05.271Z,7.40
2023-01-26T01:17:37.497Z,8.00
2023-01-26T01:20:10.986Z,7.70
2023-01-26T01:22:43.162Z,7.60
2023-01-26T01:25:16.095Z,8.20
2023-01-26T01:27:48.090Z,7.40
2023-01-26T01:30:20.213Z,8.30
2023-01-26T01:32:52.474Z,7.60
2023-01-26T01:35:24.430Z,8.10
2023-01-26T01:37:56.449Z,8.50
2023-01-26T01:40:28.419Z,8.40
2023-01-26T01:43:00.483Z,8.00
2023-01-26T01:45:50.785Z,7.60
2023-01-26T01:48:36.459Z,7.70
2023-01-26T01:51:15.395Z,7.60
2023-01-26T01:53:49.904Z,7.80
2023-01-26T01:56:23.896Z,7.30
2023-01-26T01:58:58.046Z,7.60
2023-01-26T02:01:30.150Z,7.80
2023-01-26T02:04:04.278Z,7.40
2023-01-26T02:06:57.566Z,7.60
2023-01-26T02:09:52.172Z,7.40
2023-01-26T02:12:27.907Z,7.50
2023-01-26T02:15:00.451Z,7.80
2023-01-26T02:17:32.434Z,7.50
2023-01-26T02:20:08.373Z,7.20
2023-01-26T02:23:06.756Z,8.30
2023-01-26T02:25:49.666Z,8.00
2023-01-26T02:28:25.032Z,7.20
2023-01-26T02:30:57.148Z,7.50
2023-01-26T02:33:31.216Z,7.60
2023-01-26T02:36:06.373Z,7.40
2023-01-26T02:41:39.859Z,6.90
2023-01-26T02:44:12.678Z,6.90
2023-01-26T02:46:44.650Z,7.50
2023-01-26T02:49:35.945Z,8.00
2023-01-26T02:52:08.299Z,7.40
2023-01-26T02:54:58.867Z,7.30
2023-01-26T02:57:30.867Z,7.40
2023-01-26T03:00:05.612Z,7.40
2023-01-26T03:02:37.919Z,7.70
2023-01-26T03:05:09.983Z,7.30
2023-01-26T03:07:41.950Z,7.40
2023-01-26T03:10:16.394Z,7.10
2023-01-26T03:12:48.319Z,7.70
2023-01-26T03:15:43.103Z,8.00
2023-01-26T03:18:37.619Z,6.90
2023-01-26T03:24:21.191Z,8.10
2023-01-26T03:27:11.958Z,7.70
2023-01-26T03:29:44.072Z,6.70
2023-01-26T03:32:16.001Z,7.50
2023-01-26T03:34:48.061Z,7.60
2023-01-26T03:37:22.923Z,7.40
2023-01-26T03:40:24.719Z,7.00
2023-01-26T03:43:16.143Z,6.40
2023-01-26T03:46:06.857Z,7.60
2023-01-26T03:48:57.550Z,7.40
2023-01-26T03:51:48.494Z,7.40
2023-01-26T03:54:39.109Z,8.40
2023-01-26T03:57:11.150Z,6.70
2023-01-26T03:59:43.535Z,7.00
2023-01-26T04:02:38.646Z,8.00
2023-01-26T04:05:30.816Z,7.60
2023-01-26T04:08:24.748Z,7.30
2023-01-26T04:11:07.476Z,6.70
2023-01-26T04:13:58.252Z,7.40
2023-01-26T04:16:53.700Z,7.80
2023-01-26T04:19:44.562Z,7.00
2023-01-26T04:22:16.519Z,7.70
2023-01-26T04:24:51.548Z,7.20
2023-01-26T04:27:24.412Z,7.50
2023-01-26T04:29:56.475Z,7.30
2023-01-26T04:32:28.539Z,7.00
2023-01-26T04:35:00.527Z,7.60
2023-01-26T04:37:33.608Z,7.00
2023-01-26T04:40:07.157Z,7.40
2023-01-26T04:42:40.563Z,7.70
2023-01-26T04:47:46.640Z,7.30
2023-01-26T04:50:20.749Z,7.40
2023-01-26T04:52:53.051Z,6.90
2023-01-26T04:55:25.038Z,7.00
2023-01-26T04:57:58.595Z,6.80
2023-01-26T05:00:30.874Z,6.60
2023-01-26T05:03:03.144Z,7.10
2023-01-26T05:05:39.606Z,7.10
2023-01-26T05:08:11.784Z,6.70
2023-01-26T05:10:44.008Z,7.70
2023-01-26T05:13:42.397Z,6.60
2023-01-26T05:16:27.642Z,7.30
2023-01-26T05:19:21.067Z,7.30
2023-01-26T05:22:22.387Z,7.10
2023-01-26T05:25:21.037Z,7.20
2023-01-26T05:28:07.309Z,6.80
2023-01-26T05:30:39.789Z,7.50
2023-01-26T05:33:12.145Z,7.60
2023-01-26T05:35:44.488Z,7.00
2023-01-26T05:38:16.781Z,7.00
2023-01-26T05:40:48.677Z,7.60
2023-01-26T05:43:21.215Z,7.40
2023-01-26T05:46:13.652Z,7.40
2023-01-26T05:48:47.935Z,7.50
2023-01-26T05:51:19.965Z,8.40
2023-01-26T05:53:51.873Z,7.40
2023-01-26T05:56:23.898Z,7.50
2023-01-26T05:59:00.332Z,7.70
2023-01-26T06:01:32.429Z,7.00
2023-01-26T06:04:05.911Z,6.10
2023-01-26T06:06:43.332Z,7.80
2023-01-26T06:09:30.129Z,6.70
2023-01-26T06:12:15.814Z,6.90
2023-01-26T06:15:09.083Z,7.00
2023-01-26T06:17:47.421Z,6.90
2023-01-26T06:20:20.287Z,7.00
2023-01-26T06:23:01.629Z,7.10
2023-01-26T06:25:41.519Z,7.40
2023-01-26T06:28:13.482Z,7.30
2023-01-26T06:30:46.137Z,6.40
2023-01-26T06:33:19.876Z,6.80
2023-01-26T06:38:24.455Z,5.90
2023-01-26T06:41:05.707Z,6.90
2023-01-26T06:43:38.103Z,6.00
2023-01-26T06:46:10.304Z,6.30
2023-01-26T06:48:42.398Z,6.60
2023-01-26T06:51:20.642Z,6.40
2023-01-26T06:53:55.372Z,6.80
2023-01-26T06:56:53.423Z,5.90
2023-01-26T06:59:53.137Z,6.40
2023-01-26T07:02:49.839Z,5.80
2023-01-26T07:05:21.779Z,6.90
2023-01-26T07:07:54.371Z,6.40
2023-01-26T07:10:26.298Z,6.50
2023-01-26T07:12:58.392Z,6.80
2023-01-26T07:15:30.327Z,6.50
2023-01-26T07:18:02.293Z,6.60
2023-01-26T07:20:34.244Z,6.50
2023-01-26T07:23:06.169Z,6.20
2023-01-26T07:25:38.059Z,6.50
2023-01-26T07:28:11.002Z,6.10
2023-01-26T07:30:42.939Z,5.60
2023-01-26T07:33:15.764Z,6.40
2023-01-26T07:35:47.685Z,6.20
2023-01-26T07:38:19.668Z,7.10
2023-01-26T07:40:52.301Z,6.20
2023-01-26T07:43:24.410Z,5.70
2023-01-26T07:45:58.219Z,6.60
2023-01-26T07:48:30.176Z,6.10
2023-01-26T07:51:03.967Z,6.50
2023-01-26T07:53:40.030Z,6.70
2023-01-26T07:56:16.097Z,5.90
2023-01-26T07:58:52.571Z,6.40
2023-01-26T08:01:24.613Z,6.00
2023-01-26T08:03:56.882Z,5.30
2023-01-26T08:06:28.762Z,6.20
2023-01-26T08:09:00.810Z,6.10
2023-01-26T08:11:32.808Z,5.70
2023-01-26T08:14:04.743Z,5.60
2023-01-26T08:16:36.799Z,5.50
2023-01-26T08:19:08.776Z,6.00
2023-01-26T08:21:41.425Z,6.20
2023-01-26T08:24:13.473Z,5.50
2023-01-26T08:26:45.502Z,5.80
2023-01-26T08:29:17.881Z,5.90
2023-01-26T08:31:49.798Z,5.60
2023-01-26T08:34:22.798Z,5.10
2023-01-26T08:36:54.718Z,5.30
2023-01-26T08:39:26.685Z,5.30
2023-01-26T08:41:58.613Z,5.40
2023-01-26T08:44:30.513Z,5.60
2023-01-26T08:47:02.455Z,5.30
2023-01-26T08:49:34.388Z,5.30
2023-01-26T08:52:06.251Z,5.60
2023-01-26T08:54:38.364Z,5.00
2023-01-26T08:57:10.277Z,5.20
2023-01-26T08:59:42.229Z,5.10
2023-01-26T09:02:14.216Z,5.70
2023-01-26T09:04:46.185Z,5.40
2023-01-26T09:07:18.193Z,4.90
2023-01-26T09:09:50.078Z,5.40
2023-01-26T09:12:21.990Z,4.80
2023-01-26T09:14:53.931Z,5.30
2023-01-26T09:17:26.172Z,5.20
2023-01-26T09:19:58.091Z,4.90
2023-01-26T09:22:30.966Z,5.70
2023-01-26T09:25:03.167Z,5.40
2023-01-26T09:27:35.710Z,5.20
2023-01-26T09:30:09.177Z,5.00
2023-01-26T09:32:41.091Z,5.00
2023-01-26T09:35:14.800Z,5.20
2023-01-26T09:37:47.170Z,4.70
2023-01-26T09:40:30.387Z,4.80
2023-01-26T09:43:07.845Z,4.20
2023-01-26T09:45:47.333Z,5.00
2023-01-26T09:48:47.386Z,5.00
2023-01-26T09:51:23.546Z,4.60
2023-01-26T09:53:57.601Z,4.70
2023-01-26T09:56:32.939Z,4.90
2023-01-26T09:59:20.057Z,5.00
2023-01-26T10:02:02.108Z,5.10
2023-01-26T10:04:39.509Z,5.40
2023-01-26T10:07:15.332Z,5.10
2023-01-26T10:09:51.466Z,4.80
2023-01-26T10:12:35.684Z,4.50
2023-01-26T10:15:32.087Z,4.30
2023-01-26T10:18:08.083Z,4.90
2023-01-26T10:20:43.549Z,5.20
2023-01-26T10:23:23.461Z,4.90
2023-01-26T10:26:22.443Z,5.10
2023-01-26T10:28:54.367Z,4.20
2023-01-26T10:31:32.731Z,4.80
2023-01-26T10:34:16.263Z,4.30
2023-01-26T10:36:48.426Z,4.70
2023-01-26T10:39:23.339Z,4.80
2023-01-26T10:42:03.455Z,5.30
2023-01-26T10:44:38.195Z,4.90
2023-01-26T10:47:18.243Z,4.30
2023-01-26T10:49:50.225Z,4.20
2023-01-26T10:52:25.449Z,4.40
2023-01-26T10:55:16.626Z,4.40
2023-01-26T10:57:48.554Z,4.30
2023-01-26T11:00:33.017Z,4.00
2023-01-26T11:03:30.934Z,4.60
2023-01-26T11:06:15.340Z,4.00
2023-01-26T11:08:47.368Z,4.10
2023-01-26T11:11:27.458Z,4.70
2023-01-26T11:14:15.152Z,4.10
2023-01-26T11:17:15.395Z,4.70
2023-01-26T11:19:47.258Z,4.50
2023-01-26T11:22:39.345Z,4.20
2023-01-26T11:25:26.542Z,4.20
2023-01-26T11:28:01.474Z,4.10
2023-01-26T11:30:39.419Z,4.10
2023-01-26T11:33:20.895Z,4.60
2023-01-26T11:35:52.831Z,4.70
2023-01-26T11:38:52.144Z,4.80
2023-01-26T11:41:39.166Z,4.60
2023-01-26T11:44:14.124Z,4.40
2023-01-26T11:47:16.250Z,4.50
2023-01-26T11:49:50.898Z,4.20
2023-01-26T11:52:51.085Z,3.50
2023-01-26T11:56:05.631Z,4.50
2023-01-26T11:58:46.675Z,3.80
2023-01-26T12:01:29.096Z,4.10
2023-01-26T12:04:01.111Z,4.30
2023-01-26T12:06:43.657Z,3.90
2023-01-26T12:09:23.666Z,4.30
2023-01-26T12:12:10.822Z,4.30
2023-01-26T12:14:55.622Z,4.00
2023-01-26T12:17:36.622Z,4.30
2023-01-26T12:20:34.478Z,3.80
2023-01-26T12:23:12.801Z,4.10
2023-01-26T12:25:58.170Z,4.20
2023-01-26T12:28:41.394Z,4.30
2023-01-26T12:31:19.063Z,4.00
2023-01-26T12:33:53.831Z,3.80
2023-01-26T12:36:44.519Z,3.80
2023-01-26T12:39:48.951Z,4.00
2023-01-26T12:42:30.159Z,3.90
2023-01-26T12:45:02.450Z,3.90
2023-01-26T12:47:57.078Z,3.70
2023-01-26T12:50:30.445Z,4.40
2023-01-26T12:53:11.375Z,4.50
2023-01-26T12:55:48.017Z,3.90
2023-01-26T12:58:30.050Z,3.70
2023-01-26T13:01:08.928Z,3.80
2023-01-26T13:03:51.425Z,3.80
2023-01-26T13:06:28.673Z,4.10
2023-01-26T13:09:23.760Z,3.90
2023-01-26T13:12:00.159Z,4.00
2023-01-26T13:14:37.960Z,4.20
2023-01-26T13:17:16.100Z,3.70
2023-01-26T13:19:52.296Z,3.80
2023-01-26T13:22:24.208Z,3.50
2023-01-26T13:24:56.067Z,4.00
2023-01-26T13:27:40.429Z,4.10
2023-01-26T13:30:24.984Z,3.70
2023-01-26T13:32:59.787Z,4.40
2023-01-26T13:35:32.105Z,3.70
2023-01-26T13:38:09.839Z,3.30
2023-01-26T13:40:50.660Z,3.60
2023-01-26T13:43:43.812Z,3.80
2023-01-26T13:46:44.907Z,4.00
2023-01-26T13:49:49.662Z,4.10
2023-01-26T13:52:26.119Z,4.10
2023-01-26T13:55:02.289Z,3.80
2023-01-26T13:57:34.260Z,3.60
2023-01-26T14:00:11.573Z,4.00
2023-01-26T14:02:49.922Z,3.90
2023-01-26T14:05:23.361Z,3.50
2023-01-26T14:07:56.384Z,3.60
2023-01-26T14:13:01.409Z,3.50
2023-01-26T14:18:05.671Z,3.70
2023-01-26T14:20:40.174Z,3.90
2023-01-26T14:23:18.788Z,3.70
2023-01-26T14:26:13.319Z,4.00
2023-01-26T14:28:45.757Z,4.00
2023-01-26T14:31:22.452Z,4.10
2023-01-26T14:33:58.032Z,4.10
2023-01-26T14:36:34.233Z,3.90
2023-01-26T14:39:18.461Z,4.00
2023-01-26T14:41:50.531Z,4.10
2023-01-26T14:44:22.664Z,3.40
2023-01-26T14:47:13.579Z,3.60
2023-01-26T14:49:59.990Z,4.00
2023-01-26T14:52:39.982Z,4.50
2023-01-26T14:55:18.812Z,3.50
2023-01-26T14:57:52.591Z,3.60
2023-01-26T15:00:37.326Z,3.70
2023-01-26T15:03:22.896Z,4.10
2023-01-26T15:06:07.756Z,3.80
2023-01-26T15:08:40.575Z,3.80
2023-01-26T15:11:31.150Z,4.10
2023-01-26T15:14:03.915Z,3.90
2023-01-26T15:16:51.927Z,4.20
2023-01-26T15:19:24.981Z,3.90
2023-01-26T15:24:28.719Z,3.30
2023-01-26T15:27:07.037Z,4.00
2023-01-26T15:29:38.995Z,4.00
2023-01-26T15:32:32.364Z,4.20
2023-01-26T15:35:07.931Z,4.00
2023-01-26T15:37:39.772Z,4.10
2023-01-26T15:40:13.861Z,4.00
2023-01-26T15:42:47.210Z,4.00
2023-01-26T15:45:24.674Z,4.00
2023-01-26T15:47:56.607Z,4.00
2023-01-26T15:50:28.639Z,3.70
2023-01-26T15:53:00.664Z,4.40
2023-01-26T15:55:33.417Z,3.60
2023-01-26T15:58:05.382Z,4.30
2023-01-26T16:00:37.746Z,4.10
2023-01-26T16:03:16.761Z,4.40
2023-01-26T16:05:48.735Z,4.30
2023-01-26T16:08:20.922Z,3.90
2023-01-26T16:10:54.706Z,4.30
2023-01-26T16:13:26.752Z,4.50
2023-01-26T16:15:58.647Z,4.20
2023-01-26T16:18:30.542Z,4.40
2023-01-26T16:21:06.084Z,3.90
2023-01-26T16:23:37.996Z,3.80
2023-01-26T16:26:12.108Z,4.50
2023-01-26T16:28:44.480Z,4.40
2023-01-26T16:31:22.104Z,4.20
2023-01-26T16:33:54.120Z,4.60
2023-01-26T16:36:26.015Z,4.60
2023-01-26T16:38:58.104Z,4.60
2023-01-26T16:41:32.878Z,4.40
2023-01-26T16:44:13.531Z,4.50
2023-01-26T16:46:45.879Z,4.60
2023-01-26T16:49:17.816Z,5.20
2023-01-26T16:51:49.755Z,4.10
2023-01-26T16:54:21.630Z,4.50
2023-01-26T16:56:53.632Z,4.80
2023-01-26T16:59:25.553Z,5.10
2023-01-26T17:01:57.632Z,4.80
2023-01-26T17:04:29.572Z,4.80
2023-01-26T17:07:01.444Z,4.80
2023-01-26T17:09:33.627Z,4.80
2023-01-26T17:12:06.471Z,4.90
2023-01-26T17:14:38.580Z,5.00
2023-01-26T17:17:10.915Z,4.80
2023-01-26T17:19:42.910Z,4.80
2023-01-26T17:22:15.617Z,5.30
2023-01-26T17:24:47.557Z,5.40
2023-01-26T17:27:19.448Z,5.30
2023-01-26T17:29:51.763Z,5.20
2023-01-26T17:32:25.563Z,4.80
2023-01-26T17:34:57.624Z,5.10
2023-01-26T17:37:31.018Z,4.60
2023-01-26T17:40:02.973Z,5.40
2023-01-26T17:42:35.288Z,5.50
2023-01-26T17:45:10.832Z,4.90
2023-01-26T17:47:43.814Z,5.60
2023-01-26T17:50:16.097Z,5.50
2023-01-26T17:52:48.026Z,5.50
2023-01-26T17:55:20.071Z,5.50
2023-01-26T17:57:52.023Z,5.70
2023-01-26T18:00:24.005Z,5.20
2023-01-26T18:02:56.921Z,5.10
2023-01-26T18:05:28.820Z,5.70
2023-01-26T18:08:00.730Z,6.10
2023-01-26T18:10:32.650Z,5.40
2023-01-26T18:13:04.578Z,6.00
2023-01-26T18:15:37.474Z,5.10
2023-01-26T18:18:09.384Z,5.80
2023-01-26T18:20:41.390Z,5.70
2023-01-26T18:23:13.297Z,5.80
2023-01-26T18:25:45.830Z,5.80
2023-01-26T18:28:17.963Z,5.50
2023-01-26T18:30:49.989Z,5.60
2023-01-26T18:33:21.984Z,5.90
2023-01-26T18:35:53.856Z,5.30
2023-01-26T18:38:25.806Z,6.20
2023-01-26T18:40:57.663Z,5.80
2023-01-26T18:43:32.835Z,6.60
2023-01-26T18:46:05.099Z,6.00
2023-01-26T18:48:37.533Z,6.40
2023-01-26T18:51:09.503Z,6.10
2023-01-26T18:53:41.676Z,6.10
2023-01-26T18:56:16.446Z,6.20
2023-01-26T18:58:48.512Z,5.90
2023-01-26T19:01:22.573Z,6.30
2023-01-26T19:03:55.605Z,6.00
2023-01-26T19:06:28.742Z,5.70
2023-01-26T19:11:36.920Z,5.80
2023-01-26T19:14:09.033Z,6.30
2023-01-26T19:16:42.724Z,6.10
2023-01-26T19:19:14.718Z,6.20
2023-01-26T19:21:46.636Z,6.20
2023-01-26T19:24:18.770Z,6.50
2023-01-26T19:26:50.716Z,5.80
2023-01-26T19:29:22.672Z,6.30
2023-01-26T19:31:54.574Z,6.10
2023-01-26T19:34:28.648Z,5.90
2023-01-26T19:37:00.589Z,6.30
2023-01-26T19:39:32.582Z,6.60
2023-01-26T19:42:04.621Z,6.00
2023-01-26T19:44:36.576Z,6.30
2023-01-26T19:47:08.482Z,6.70
2023-01-26T19:49:40.385Z,7.00
2023-01-26T19:52:12.302Z,6.20
2023-01-26T19:54:44.235Z,7.10
2023-01-26T19:57:16.168Z,6.50
2023-01-26T19:59:48.071Z,6.20
2023-01-26T20:02:20.099Z,6.60
2023-01-26T20:04:52.009Z,6.70
2023-01-26T20:07:23.927Z,6.50
2023-01-26T20:09:55.872Z,7.00
2023-01-26T20:12:27.746Z,6.60
2023-01-26T20:15:00.783Z,6.30
2023-01-26T20:17:32.866Z,6.50
2023-01-26T20:20:05.301Z,6.60
2023-01-26T20:22:37.516Z,7.00
2023-01-26T20:25:11.963Z,7.80
2023-01-26T20:27:44.215Z,7.00
2023-01-26T20:30:16.958Z,7.40
2023-01-26T20:32:53.758Z,6.50
2023-01-26T20:35:25.982Z,6.90
2023-01-26T20:37:59.316Z,7.10
2023-01-26T20:40:31.214Z,6.50
2023-01-26T20:43:03.185Z,7.20
2023-01-26T20:45:35.082Z,7.50
2023-01-26T20:48:07.410Z,6.90
2023-01-26T20:50:40.247Z,6.60
2023-01-26T20:53:12.256Z,7.00
2023-01-26T20:55:44.183Z,6.60
2023-01-26T20:58:16.075Z,6.80
2023-01-26T21:00:48.072Z,7.20
2023-01-26T21:03:20.152Z,6.10
2023-01-26T21:05:52.987Z,7.00
2023-01-26T21:08:25.511Z,7.00
2023-01-26T21:10:57.558Z,7.10
2023-01-26T21:13:29.635Z,7.50
2023-01-26T21:16:02.139Z,7.50
2023-01-26T21:18:34.169Z,7.30
2023-01-26T21:21:07.923Z,8.00
2023-01-26T21:23:40.579Z,7.10
2023-01-26T21:26:20.244Z,7.00
2023-01-26T21:28:59.829Z,7.90
2023-01-26T21:31:33.599Z,7.00
2023-01-26T21:34:05.624Z,7.40
2023-01-26T21:36:37.552Z,7.70
2023-01-26T21:39:13.074Z,8.00
2023-01-26T21:41:57.171Z,6.90
2023-01-26T21:44:31.147Z,7.70
2023-01-26T21:47:06.440Z,7.20
2023-01-26T21:49:38.342Z,7.70
2023-01-26T21:52:29.218Z,7.40
2023-01-26T21:55:01.150Z,7.40
2023-01-26T21:57:51.662Z,8.10
2023-01-26T22:00:23.550Z,8.10
2023-01-26T22:02:56.119Z,8.60
2023-01-26T22:05:28.076Z,8.00
2023-01-26T22:07:59.999Z,7.60
2023-01-26T22:10:31.972Z,8.80
2023-01-26T22:13:03.869Z,8.90
2023-01-26T22:15:35.815Z,8.20
2023-01-26T22:18:07.691Z,7.70
2023-01-26T22:20:39.698Z,8.20
2023-01-26T22:23:11.701Z,8.10
2023-01-26T22:25:43.585Z,7.70
2023-01-26T22:28:15.515Z,8.00
2023-01-26T22:30:47.411Z,8.60
2023-01-26T22:33:19.343Z,9.30
2023-01-26T22:35:59.307Z,8.80
2023-01-26T22:38:32.510Z,8.50
2023-01-26T22:41:05.985Z,8.60
2023-01-26T22:43:38.030Z,9.30
2023-01-26T22:46:11.907Z,9.40
2023-01-26T22:48:43.894Z,8.70
2023-01-26T22:51:21.923Z,9.70
2023-01-26T22:53:54.679Z,9.50
2023-01-26T22:56:27.004Z,8.90
2023-01-26T22:59:00.599Z,9.10
2023-01-26T23:01:33.284Z,9.50
2023-01-26T23:04:05.404Z,9.40
2023-01-26T23:06:37.344Z,9.60
2023-01-26T23:09:09.266Z,9.40
2023-01-26T23:11:41.200Z,10.20
2023-01-26T23:14:13.087Z,9.20
2023-01-26T23:16:45.229Z,9.70
2023-01-26T23:19:17.139Z,9.50
2023-01-26T23:21:49.041Z,9.20
2023-01-26T23:24:21.096Z,9.50
2023-01-26T23:26:52.985Z,9.80
2023-01-26T23:29:25.000Z,10.30
2023-01-26T23:31:56.982Z,9.80
2023-01-26T23:34:28.914Z,10.30
2023-01-26T23:37:00.851Z,9.80
2023-01-26T23:39:32.749Z,9.90
2023-01-26T23:42:04.689Z,10.20
2023-01-26T23:44:36.623Z,9.90
2023-01-26T23:47:08.666Z,9.30
2023-01-26T23:49:40.622Z,10.40
2023-01-26T23:52:12.491Z,10.10
2023-01-26T23:54:44.366Z,10.00
2023-01-26T23:57:16.303Z,9.90
2023-01-26T23:59:48.234Z,9.90
